createdAt,value
2023-05-22T00:02:04.808Z,101583.47
2023-05-22T00:04:37.635Z,101581.91
2023-05-22T00:07:11.796Z,101568.47
2023-05-22T00:09:44.875Z,101576.00
2023-05-22T00:12:18.110Z,101574.00
2023-05-22T00:14:51.104Z,101566.88
2023-05-22T00:17:25.192Z,101573.19
2023-05-22T00:20:08.362Z,101573.22
2023-05-22T00:22:43.205Z,101562.91
2023-05-22T00:25:19.440Z,101560.13
2023-05-22T00:27:53.389Z,101558.16
2023-05-22T00:30:26.178Z,101557.72
2023-05-22T00:32:59.014Z,101550.59
2023-05-22T00:35:31.809Z,101549.44
2023-05-22T00:38:06.751Z,101545.03
2023-05-22T00:40:39.848Z,101548.59
2023-05-22T00:43:13.414Z,101553.34
2023-05-22T00:45:47.693Z,101547.03
2023-05-22T00:48:21.183Z,101556.91
2023-05-22T00:50:55.694Z,101547.03
2023-05-22T00:53:31.609Z,101549.44
2023-05-22T00:56:05.276Z,101554.94
2023-05-22T00:58:38.037Z,101554.53
2023-05-22T01:01:12.121Z,101553.41
2023-05-22T01:03:46.972Z,101561.31
2023-05-22T01:06:21.587Z,101562.50
2023-05-22T01:08:55.963Z,101562.09
2023-05-22T01:11:36.368Z,101563.25
2023-05-22T01:14:19.272Z,101563.63
2023-05-22T01:16:56.169Z,101573.53
2023-05-22T01:19:53.908Z,101565.22
2023-05-22T01:22:40.844Z,101564.81
2023-05-22T01:25:29.024Z,101556.09
2023-05-22T01:28:19.558Z,101567.94
2023-05-22T01:31:02.913Z,101550.97
2023-05-22T01:33:40.683Z,101550.13
2023-05-22T01:36:20.137Z,101542.22
2023-05-22T01:38:54.451Z,101532.75
2023-05-22T01:41:28.680Z,101524.81
2023-05-22T01:44:02.067Z,101515.34
2023-05-22T01:46:36.575Z,101514.97
2023-05-22T01:49:11.261Z,101509.81
2023-05-22T01:51:52.686Z,101508.22
2023-05-22T01:54:31.840Z,101499.91
2023-05-22T01:57:09.076Z,101499.94
2023-05-22T01:59:48.581Z,101498.75
2023-05-22T02:02:25.700Z,101509.44
2023-05-22T02:05:01.828Z,101511.00
2023-05-22T02:07:38.691Z,101505.03
2023-05-22T02:10:14.384Z,101509.44
2023-05-22T02:12:47.456Z,101498.72
2023-05-22T02:15:21.786Z,101493.59
2023-05-22T02:17:57.102Z,101490.81
2023-05-22T02:20:30.686Z,101495.53
2023-05-22T02:23:03.806Z,101491.97
2023-05-22T02:25:37.070Z,101484.47
2023-05-22T02:28:10.059Z,101482.88
2023-05-22T02:30:42.798Z,101477.75
2023-05-22T02:33:17.938Z,101480.50
2023-05-22T02:35:50.972Z,101478.94
2023-05-22T02:38:24.168Z,101482.13
2023-05-22T02:40:57.188Z,101482.47
2023-05-22T02:43:29.918Z,101467.06
2023-05-22T02:46:03.095Z,101471.03
2023-05-22T02:48:37.382Z,101474.56
2023-05-22T02:51:10.241Z,101471.00
2023-05-22T02:53:43.172Z,101470.25
2023-05-22T02:56:16.088Z,101462.72
2023-05-22T02:58:48.864Z,101464.72
2023-05-22T03:01:22.213Z,101481.28
2023-05-22T03:03:57.540Z,101474.97
2023-05-22T03:06:30.686Z,101473.00
2023-05-22T03:09:04.428Z,101470.63
2023-05-22T03:11:37.379Z,101469.41
2023-05-22T03:14:10.367Z,101463.88
2023-05-22T03:16:43.407Z,101464.69
2023-05-22T03:19:18.371Z,101462.69
2023-05-22T03:21:51.438Z,101459.16
2023-05-22T03:24:24.085Z,101464.66
2023-05-22T03:26:57.013Z,101463.09
2023-05-22T03:29:39.157Z,101463.88
2023-05-22T03:32:11.974Z,101461.91
2023-05-22T03:34:46.140Z,101456.78
2023-05-22T03:37:19.135Z,101456.38
2023-05-22T03:39:52.429Z,101448.84
2023-05-22T03:42:32.650Z,101443.72
2023-05-22T03:45:07.957Z,101446.47
2023-05-22T03:47:40.933Z,101442.91
2023-05-22T03:50:16.010Z,101444.88
2023-05-22T03:52:48.954Z,101444.88
2023-05-22T03:55:24.091Z,101451.19
2023-05-22T03:57:57.606Z,101452.38
2023-05-22T04:00:31.804Z,101448.03
2023-05-22T04:03:04.856Z,101444.06
2023-05-22T04:05:39.126Z,101441.72
2023-05-22T04:08:11.991Z,101443.69
2023-05-22T04:10:46.655Z,101457.09
2023-05-22T04:13:20.048Z,101442.88
2023-05-22T04:15:53.770Z,101448.00
2023-05-22T04:18:27.219Z,101445.63
2023-05-22T04:21:02.790Z,101456.28
2023-05-22T04:23:36.109Z,101453.53
2023-05-22T04:26:10.597Z,101459.47
2023-05-22T04:28:49.256Z,101465.41
2023-05-22T04:31:23.109Z,101467.78
2023-05-22T04:33:56.598Z,101474.88
2023-05-22T04:36:31.201Z,101470.16
2023-05-22T04:39:04.597Z,101475.28
2023-05-22T04:41:39.631Z,101461.44
2023-05-22T04:44:12.723Z,101478.81
2023-05-22T04:46:45.784Z,101476.06
2023-05-22T04:49:19.176Z,101487.56
2023-05-22T04:51:55.637Z,101487.56
2023-05-22T04:54:39.206Z,101477.69
2023-05-22T04:57:12.085Z,101470.19
2023-05-22T04:59:49.135Z,101472.97
2023-05-22T05:02:22.489Z,101473.75
2023-05-22T05:04:56.165Z,101470.19
2023-05-22T05:07:30.539Z,101474.16
2023-05-22T05:10:03.496Z,101477.69
2023-05-22T05:12:36.251Z,101475.31
2023-05-22T05:15:10.247Z,101478.16
2023-05-22T05:17:43.338Z,101471.03
2023-05-22T05:20:16.080Z,101471.44
2023-05-22T05:22:51.235Z,101465.53
2023-05-22T05:25:25.277Z,101470.25
2023-05-22T05:27:58.260Z,101467.88
2023-05-22T05:30:32.036Z,101468.66
2023-05-22T05:33:23.659Z,101478.16
2023-05-22T05:36:19.533Z,101482.09
2023-05-22T05:38:54.366Z,101485.28
2023-05-22T05:41:28.023Z,101476.19
2023-05-22T05:44:07.825Z,101481.72
2023-05-22T05:46:42.020Z,101473.03
2023-05-22T05:49:15.052Z,101473.44
2023-05-22T05:51:48.856Z,101479.38
2023-05-22T05:54:26.245Z,101481.75
2023-05-22T05:57:01.753Z,101484.13
2023-05-22T05:59:35.198Z,101490.06
2023-05-22T06:02:40.507Z,101491.25
2023-05-22T06:05:20.215Z,101490.84
2023-05-22T06:08:00.121Z,101506.69
2023-05-22T06:10:35.021Z,101510.63
2023-05-22T06:13:18.004Z,101513.78
2023-05-22T06:15:51.855Z,101514.59
2023-05-22T06:18:25.626Z,101520.59
2023-05-22T06:20:59.381Z,101520.59
2023-05-22T06:23:32.479Z,101519.41
2023-05-22T06:26:06.709Z,101532.47
2023-05-22T06:28:41.198Z,101530.50
2023-05-22T06:31:14.368Z,101532.84
2023-05-22T06:33:50.479Z,101539.97
2023-05-22T06:36:23.693Z,101551.47
2023-05-22T06:38:57.460Z,101553.41
2023-05-22T06:41:50.497Z,101564.13
2023-05-22T06:44:25.684Z,101566.06
2023-05-22T06:47:01.350Z,101581.50
2023-05-22T06:49:35.939Z,101565.28
2023-05-22T06:52:10.092Z,101579.53
2023-05-22T06:54:44.540Z,101581.50
2023-05-22T06:57:24.001Z,101585.47
2023-05-22T06:59:57.804Z,101585.06
2023-05-22T07:02:49.705Z,101590.63
2023-05-22T07:05:38.674Z,101585.84
2023-05-22T07:08:12.235Z,101590.56
2023-05-22T07:10:45.297Z,101590.97
2023-05-22T07:13:21.951Z,101585.00
2023-05-22T07:15:54.914Z,101582.97
2023-05-22T07:18:27.956Z,101581.69
2023-05-22T07:21:00.711Z,101588.03
2023-05-22T07:23:34.300Z,101587.19
2023-05-22T07:26:07.711Z,101581.56
2023-05-22T07:28:45.959Z,101577.84
2023-05-22T07:31:20.429Z,101582.47
2023-05-22T07:33:54.448Z,101569.53
2023-05-22T07:36:27.263Z,101571.34
2023-05-22T07:39:00.041Z,101567.94
2023-05-22T07:41:32.796Z,101565.81
2023-05-22T07:44:07.551Z,101567.47
2023-05-22T07:46:43.296Z,101561.69
2023-05-22T07:49:22.066Z,101559.13
2023-05-22T07:51:56.002Z,101563.16
2023-05-22T07:54:31.498Z,101563.94
2023-05-22T07:57:04.622Z,101572.66
2023-05-22T07:59:44.221Z,101585.16
2023-05-22T08:02:17.337Z,101591.97
2023-05-22T08:04:50.545Z,101600.56
2023-05-22T08:07:23.553Z,101594.38
2023-05-22T08:09:56.642Z,101591.81
2023-05-22T08:12:29.423Z,101603.06
2023-05-22T08:15:03.780Z,101579.53
2023-05-22T08:17:36.631Z,101588.22
2023-05-22T08:20:10.378Z,101583.03
2023-05-22T08:22:43.501Z,101574.34
2023-05-22T08:25:16.519Z,101585.31
2023-05-22T08:27:49.453Z,101591.66
2023-05-22T08:30:23.491Z,101587.63
2023-05-22T08:32:56.431Z,101593.28
2023-05-22T08:35:29.079Z,101579.13
2023-05-22T08:38:01.867Z,101575.84
2023-05-22T08:40:36.530Z,101568.22
2023-05-22T08:43:09.548Z,101562.00
2023-05-22T08:45:44.316Z,101563.41
2023-05-22T08:48:19.618Z,101565.91
2023-05-22T08:50:57.453Z,101562.75
2023-05-22T08:53:32.065Z,101558.44
2023-05-22T08:56:07.209Z,101559.16
2023-05-22T08:58:40.129Z,101562.09
2023-05-22T09:01:16.224Z,101565.47
2023-05-22T09:03:51.343Z,101564.34
2023-05-22T09:06:24.422Z,101550.66
2023-05-22T09:08:57.748Z,101565.25
2023-05-22T09:11:30.570Z,101567.38
2023-05-22T09:14:10.398Z,101564.56
2023-05-22T09:16:49.825Z,101560.28
2023-05-22T09:19:23.207Z,101571.34
2023-05-22T09:22:03.314Z,101568.66
2023-05-22T09:24:40.057Z,101572.31
2023-05-22T09:27:13.255Z,101579.75
2023-05-22T09:29:52.081Z,101576.44
2023-05-22T09:32:30.212Z,101597.50
2023-05-22T09:35:05.245Z,101591.31
2023-05-22T09:37:38.918Z,101592.69
2023-05-22T09:40:14.173Z,101593.38
2023-05-22T09:42:47.149Z,101591.88
2023-05-22T09:45:24.201Z,101590.06
2023-05-22T09:47:58.483Z,101590.38
2023-05-22T09:50:31.539Z,101577.75
2023-05-22T09:53:05.978Z,101588.34
2023-05-22T09:55:40.171Z,101583.34
2023-05-22T09:58:17.985Z,101584.97
2023-05-22T10:00:51.998Z,101592.31
2023-05-22T10:03:27.851Z,101588.75
2023-05-22T10:06:02.142Z,101588.47
2023-05-22T10:08:43.759Z,101590.41
2023-05-22T10:11:17.279Z,101591.50
2023-05-22T10:13:51.928Z,101590.13
2023-05-22T10:16:26.068Z,101581.03
2023-05-22T10:19:01.694Z,101586.50
2023-05-22T10:21:37.112Z,101590.09
2023-05-22T10:24:11.443Z,101591.50
2023-05-22T10:26:45.416Z,101594.81
2023-05-22T10:29:26.644Z,101595.91
2023-05-22T10:32:05.904Z,101597.97
2023-05-22T10:34:55.424Z,101599.97
2023-05-22T10:37:43.619Z,101585.19
2023-05-22T10:40:22.657Z,101595.41
2023-05-22T10:43:00.625Z,101594.75
2023-05-22T10:45:33.965Z,101596.75
2023-05-22T10:48:08.160Z,101583.84
2023-05-22T10:50:52.867Z,101593.56
2023-05-22T10:53:28.014Z,101593.03
2023-05-22T10:56:09.782Z,101587.34
2023-05-22T10:58:45.506Z,101588.63
2023-05-22T11:01:27.127Z,101584.56
2023-05-22T11:04:12.975Z,101585.94
2023-05-22T11:07:04.016Z,101580.13
2023-05-22T11:09:43.393Z,101578.38
2023-05-22T11:12:21.348Z,101574.03
2023-05-22T11:14:56.426Z,101573.91
2023-05-22T11:17:31.781Z,101572.81
2023-05-22T11:20:06.289Z,101585.28
2023-05-22T11:22:43.905Z,101570.22
2023-05-22T11:25:18.478Z,101567.38
2023-05-22T11:27:51.400Z,101569.53
2023-05-22T11:30:27.813Z,101572.97
2023-05-22T11:33:01.852Z,101564.88
2023-05-22T11:35:35.628Z,101570.94
2023-05-22T11:38:10.575Z,101563.69
2023-05-22T11:40:43.639Z,101572.19
2023-05-22T11:43:16.406Z,101572.31
2023-05-22T11:45:49.304Z,101585.06
2023-05-22T11:48:22.396Z,101581.16
2023-05-22T11:50:55.356Z,101580.03
2023-05-22T11:53:31.228Z,101586.31
2023-05-22T11:56:05.311Z,101587.06
2023-05-22T11:58:38.162Z,101582.53
2023-05-22T12:01:10.936Z,101583.59
2023-05-22T12:03:43.775Z,101586.91
2023-05-22T12:06:18.407Z,101593.75
2023-05-22T12:08:52.964Z,101602.84
2023-05-22T12:11:27.286Z,101602.72
2023-05-22T12:14:03.857Z,101602.13
2023-05-22T12:16:38.050Z,101600.41
2023-05-22T12:19:11.856Z,101602.34
2023-05-22T12:21:46.178Z,101602.16
2023-05-22T12:24:23.243Z,101600.78
2023-05-22T12:26:57.606Z,101601.16
2023-05-22T12:29:30.365Z,101600.75
2023-05-22T12:32:04.296Z,101601.72
2023-05-22T12:34:44.390Z,101593.72
2023-05-22T12:37:21.233Z,101607.69
2023-05-22T12:40:00.518Z,101611.28
2023-05-22T12:42:33.404Z,101605.22
2023-05-22T12:45:07.364Z,101604.28
2023-05-22T12:47:40.323Z,101603.56
2023-05-22T12:50:13.213Z,101587.09
2023-05-22T12:52:46.205Z,101596.72
2023-05-22T12:55:20.330Z,101603.59
2023-05-22T12:57:53.315Z,101598.31
2023-05-22T13:00:26.388Z,101602.31
2023-05-22T13:02:59.413Z,101598.56
2023-05-22T13:05:32.309Z,101599.94
2023-05-22T13:08:06.013Z,101604.44
2023-05-22T13:10:40.143Z,101612.53
2023-05-22T13:13:13.015Z,101604.47
2023-05-22T13:15:46.672Z,101604.50
2023-05-22T13:18:19.802Z,101609.66
2023-05-22T13:20:53.409Z,101605.31
2023-05-22T13:23:26.270Z,101601.94
2023-05-22T13:26:01.929Z,101598.03
2023-05-22T13:28:34.781Z,101613.31
2023-05-22T13:31:07.629Z,101610.25
2023-05-22T13:33:40.634Z,101606.81
2023-05-22T13:36:13.697Z,101610.25
2023-05-22T13:38:46.670Z,101610.13
2023-05-22T13:41:21.320Z,101618.56
2023-05-22T13:43:55.216Z,101616.69
2023-05-22T13:46:28.184Z,101616.06
2023-05-22T13:49:01.178Z,101615.56
2023-05-22T13:51:33.978Z,101623.00
2023-05-22T13:54:07.016Z,101618.91
2023-05-22T13:56:41.560Z,101629.63
2023-05-22T13:59:14.457Z,101627.66
2023-05-22T14:01:48.008Z,101617.56
2023-05-22T14:04:21.446Z,101618.41
2023-05-22T14:06:54.740Z,101615.41
2023-05-22T14:09:28.234Z,101623.50
2023-05-22T14:12:02.650Z,101629.22
2023-05-22T14:14:35.708Z,101632.72
2023-05-22T14:17:09.794Z,101627.16
2023-05-22T14:19:42.604Z,101628.53
2023-05-22T14:22:15.363Z,101636.44
2023-05-22T14:24:48.808Z,101627.31
2023-05-22T14:27:23.148Z,101622.91
2023-05-22T14:29:56.004Z,101629.72
2023-05-22T14:32:29.142Z,101626.59
2023-05-22T14:35:02.023Z,101621.91
2023-05-22T14:37:34.778Z,101613.06
2023-05-22T14:40:09.312Z,101613.25
2023-05-22T14:42:43.493Z,101617.31
2023-05-22T14:45:16.455Z,101605.16
2023-05-22T14:47:49.262Z,101608.53
2023-05-22T14:50:22.885Z,101612.25
2023-05-22T14:52:55.857Z,101609.69
2023-05-22T14:55:28.546Z,101609.69
2023-05-22T14:58:02.713Z,101614.66
2023-05-22T15:00:35.642Z,101613.59
2023-05-22T15:03:08.575Z,101621.06
2023-05-22T15:05:41.724Z,101623.78
2023-05-22T15:08:14.676Z,101626.06
2023-05-22T15:10:47.574Z,101619.16
2023-05-22T15:13:21.694Z,101639.97
2023-05-22T15:15:54.530Z,101630.44
2023-05-22T15:18:27.931Z,101633.22
2023-05-22T15:21:01.139Z,101646.28
2023-05-22T15:23:33.905Z,101636.63
2023-05-22T15:26:07.000Z,101643.00
2023-05-22T15:28:41.467Z,101648.31
2023-05-22T15:31:15.020Z,101644.28
2023-05-22T15:33:47.761Z,101646.63
2023-05-22T15:36:20.820Z,101643.97
2023-05-22T15:38:55.812Z,101642.53
2023-05-22T15:41:28.767Z,101640.97
2023-05-22T15:44:02.911Z,101642.06
2023-05-22T15:46:35.871Z,101643.19
2023-05-22T15:49:08.635Z,101643.13
2023-05-22T15:51:41.217Z,101644.88
2023-05-22T15:54:13.902Z,101640.34
2023-05-22T15:56:46.827Z,101646.47
2023-05-22T15:59:21.314Z,101654.31
2023-05-22T16:01:54.075Z,101651.59
2023-05-22T16:04:27.081Z,101650.00
2023-05-22T16:06:59.866Z,101651.13
2023-05-22T16:09:33.035Z,101658.47
2023-05-22T16:12:06.368Z,101661.16
2023-05-22T16:14:40.576Z,101672.44
2023-05-22T16:17:14.026Z,101679.06
2023-05-22T16:19:46.868Z,101679.97
2023-05-22T16:22:21.377Z,101682.00
2023-05-22T16:24:54.259Z,101681.41
2023-05-22T16:27:27.131Z,101678.69
2023-05-22T16:30:02.576Z,101684.28
2023-05-22T16:32:35.555Z,101692.13
2023-05-22T16:35:09.479Z,101684.66
2023-05-22T16:37:42.442Z,101687.00
2023-05-22T16:40:15.174Z,101686.81
2023-05-22T16:42:47.879Z,101692.09
2023-05-22T16:45:22.999Z,101690.19
2023-05-22T16:47:56.184Z,101696.00
2023-05-22T16:50:29.050Z,101691.31
2023-05-22T16:53:01.826Z,101697.72
2023-05-22T16:55:34.376Z,101693.03
2023-05-22T16:58:07.084Z,101696.34
2023-05-22T17:00:41.375Z,101699.75
2023-05-22T17:03:14.636Z,101698.44
2023-05-22T17:05:48.340Z,101703.16
2023-05-22T17:08:21.324Z,101700.34
2023-05-22T17:10:54.078Z,101700.75
2023-05-22T17:13:26.686Z,101691.88
2023-05-22T17:16:00.910Z,101697.63
2023-05-22T17:18:33.766Z,101698.88
2023-05-22T17:21:09.178Z,101689.56
2023-05-22T17:23:42.017Z,101700.44
2023-05-22T17:26:15.228Z,101699.63
2023-05-22T17:28:48.093Z,101699.84
2023-05-22T17:31:22.784Z,101709.44
2023-05-22T17:33:55.691Z,101699.78
2023-05-22T17:36:28.456Z,101709.84
2023-05-22T17:39:01.126Z,101703.97
2023-05-22T17:41:33.966Z,101711.69
2023-05-22T17:44:07.047Z,101720.06
2023-05-22T17:46:41.382Z,101723.13
2023-05-22T17:49:14.410Z,101727.25
2023-05-22T17:51:47.266Z,101732.94
2023-05-22T17:54:20.134Z,101724.03
2023-05-22T17:56:53.126Z,101723.56
2023-05-22T17:59:26.070Z,101734.44
2023-05-22T18:02:00.300Z,101740.38
2023-05-22T18:04:33.153Z,101737.19
2023-05-22T18:07:08.288Z,101728.34
2023-05-22T18:09:41.092Z,101728.03
2023-05-22T18:12:30.245Z,101724.88
2023-05-22T18:15:04.600Z,101721.53
2023-05-22T18:17:38.836Z,101715.75
2023-05-22T18:20:12.929Z,101732.16
2023-05-22T18:22:45.839Z,101731.09
2023-05-22T18:25:18.366Z,101737.69
2023-05-22T18:27:51.113Z,101731.84
2023-05-22T18:30:23.814Z,101730.84
2023-05-22T18:32:58.013Z,101743.38
2023-05-22T18:35:30.910Z,101748.16
2023-05-22T18:38:03.889Z,101750.72
2023-05-22T18:40:36.906Z,101755.00
2023-05-22T18:43:09.584Z,101758.56
2023-05-22T18:45:42.485Z,101759.00
2023-05-22T18:48:16.762Z,101751.66
2023-05-22T18:50:49.888Z,101752.94
2023-05-22T18:53:23.134Z,101750.66
2023-05-22T18:55:55.884Z,101766.13
2023-05-22T18:58:28.620Z,101755.38
2023-05-22T19:01:01.732Z,101753.72
2023-05-22T19:03:36.160Z,101748.69
2023-05-22T19:06:09.217Z,101752.38
2023-05-22T19:08:42.012Z,101749.75
2023-05-22T19:11:14.721Z,101758.94
2023-05-22T19:13:47.546Z,101755.38
2023-05-22T19:16:20.314Z,101763.00
2023-05-22T19:18:54.473Z,101773.03
2023-05-22T19:21:27.413Z,101781.56
2023-05-22T19:24:00.013Z,101782.72
2023-05-22T19:26:32.851Z,101788.47
2023-05-22T19:29:05.627Z,101784.41
2023-05-22T19:31:38.542Z,101790.69
2023-05-22T19:34:12.703Z,101804.19
2023-05-22T19:36:45.480Z,101802.63
2023-05-22T19:39:18.324Z,101812.25
2023-05-22T19:41:52.482Z,101827.03
2023-05-22T19:44:25.308Z,101819.47
2023-05-22T19:46:57.989Z,101823.06
2023-05-22T19:49:36.768Z,101829.47
2023-05-22T19:52:09.672Z,101839.84
2023-05-22T19:54:42.399Z,101856.06
2023-05-22T19:57:15.494Z,101855.19
2023-05-22T19:59:48.314Z,101860.00
2023-05-22T20:02:21.086Z,101868.38
2023-05-22T20:04:55.095Z,101866.72
2023-05-22T20:07:28.090Z,101874.31
2023-05-22T20:10:00.941Z,101867.97
2023-05-22T20:12:33.611Z,101874.38
2023-05-22T20:15:08.182Z,101872.00
2023-05-22T20:17:41.862Z,101881.94
2023-05-22T20:20:16.167Z,101888.28
2023-05-22T20:22:49.020Z,101895.06
2023-05-22T20:25:22.182Z,101898.22
2023-05-22T20:27:55.414Z,101906.22
2023-05-22T20:30:28.306Z,101906.63
2023-05-22T20:33:01.167Z,101915.81
2023-05-22T20:35:37.135Z,101916.25
2023-05-22T20:38:14.333Z,101921.81
2023-05-22T20:40:47.773Z,101923.38
2023-05-22T20:43:20.667Z,101926.16
2023-05-22T20:45:54.221Z,101931.78
2023-05-22T20:48:27.081Z,101937.34
2023-05-22T20:51:01.151Z,101938.94
2023-05-22T20:53:34.264Z,101946.13
2023-05-22T20:56:07.213Z,101946.94
2023-05-22T20:58:39.823Z,101945.38
2023-05-22T21:01:12.780Z,101947.34
2023-05-22T21:03:45.377Z,101950.94
2023-05-22T21:06:19.767Z,101953.34
2023-05-22T21:08:58.977Z,101949.38
2023-05-22T21:11:31.869Z,101955.34
2023-05-22T21:14:04.527Z,101960.53
2023-05-22T21:16:39.484Z,101958.97
2023-05-22T21:19:12.623Z,101959.34
2023-05-22T21:21:46.704Z,101959.00
2023-05-22T21:24:19.659Z,101959.78
2023-05-22T21:26:52.250Z,101955.88
2023-05-22T21:29:25.112Z,101958.63
2023-05-22T21:31:57.878Z,101959.09
2023-05-22T21:34:30.704Z,101950.31
2023-05-22T21:37:05.118Z,101955.88
2023-05-22T21:39:37.933Z,101962.25
2023-05-22T21:42:10.621Z,101965.41
2023-05-22T21:44:43.972Z,101954.31
2023-05-22T21:47:17.094Z,101956.72
2023-05-22T21:49:49.900Z,101955.13
2023-05-22T21:52:25.138Z,101964.69
2023-05-22T21:54:57.999Z,101961.53
2023-05-22T21:57:31.107Z,101971.03
2023-05-22T22:00:04.118Z,101961.50
2023-05-22T22:02:38.133Z,101961.53
2023-05-22T22:05:11.837Z,101965.53
2023-05-22T22:07:46.124Z,101969.06
2023-05-22T22:10:19.326Z,101968.69
2023-05-22T22:12:52.299Z,101964.72
2023-05-22T22:15:25.227Z,101959.97
2023-05-22T22:18:02.296Z,101963.91
2023-05-22T22:20:44.294Z,101976.66
2023-05-22T22:23:19.313Z,101980.22
2023-05-22T22:25:52.185Z,101981.78
2023-05-22T22:28:24.916Z,101986.97
2023-05-22T22:30:58.010Z,101969.09
2023-05-22T22:33:32.789Z,101973.88
2023-05-22T22:36:06.069Z,101970.69
2023-05-22T22:38:40.186Z,101979.03
2023-05-22T22:41:13.017Z,101985.38
2023-05-22T22:43:45.931Z,101980.59
2023-05-22T22:46:18.916Z,101988.97
2023-05-22T22:48:51.832Z,101995.28
2023-05-22T22:51:24.887Z,101997.25
2023-05-22T22:53:59.041Z,101996.44
2023-05-22T22:56:32.035Z,101990.09
2023-05-22T22:59:04.915Z,101989.28
2023-05-22T23:01:37.916Z,101996.81
2023-05-22T23:04:11.093Z,102000.41
2023-05-22T23:06:43.992Z,101990.06
2023-05-22T23:09:18.141Z,101988.88
2023-05-22T23:11:51.029Z,101986.13
2023-05-22T23:14:24.742Z,101998.78
2023-05-22T23:16:57.690Z,102004.31
2023-05-22T23:19:30.944Z,102008.28
2023-05-22T23:22:04.924Z,102010.66
2023-05-22T23:24:39.098Z,102006.72
2023-05-22T23:27:11.920Z,102005.91
2023-05-22T23:29:44.703Z,102002.69
2023-05-22T23:32:17.585Z,102001.53
2023-05-22T23:34:50.854Z,101997.56
2023-05-22T23:37:23.799Z,101995.16
2023-05-22T23:39:57.797Z,102002.69
2023-05-22T23:42:30.597Z,101992.31
2023-05-22T23:45:03.983Z,102009.41
2023-05-22T23:47:37.166Z,101999.09
2023-05-22T23:50:11.075Z,102003.03
2023-05-22T23:52:44.027Z,102007.38
2023-05-22T23:55:18.513Z,102005.38
2023-05-22T23:57:51.505Z,102002.22
